createdAt,value
2019-03-12T00:00:08.716Z,5.83
2019-03-12T00:01:08.737Z,5.86
2019-03-12T00:02:08.694Z,5.86
2019-03-12T00:03:08.680Z,5.82
2019-03-12T00:04:08.667Z,5.85
2019-03-12T00:05:08.660Z,5.83
2019-03-12T00:06:08.646Z,5.85
2019-03-12T00:07:08.646Z,5.86
2019-03-12T00:08:08.626Z,5.83
2019-03-12T00:09:08.612Z,5.81
2019-03-12T00:10:08.608Z,5.85
2019-03-12T00:11:08.593Z,5.90
2019-03-12T00:12:08.603Z,5.85
2019-03-12T00:13:08.566Z,5.78
2019-03-12T00:14:08.568Z,5.79
2019-03-12T00:15:08.583Z,5.78
2019-03-12T00:16:08.538Z,5.85
2019-03-12T00:17:08.589Z,5.78
2019-03-12T00:18:08.517Z,5.85
2019-03-12T00:19:08.516Z,5.75
2019-03-12T00:20:08.530Z,5.82
2019-03-12T00:21:08.522Z,5.75
2019-03-12T00:22:08.480Z,5.81
2019-03-12T00:23:08.461Z,5.78
2019-03-12T00:24:08.466Z,5.75
2019-03-12T00:25:08.457Z,5.82
2019-03-12T00:26:08.440Z,5.67
2019-03-12T00:27:08.419Z,5.81
2019-03-12T00:28:08.476Z,5.83
2019-03-12T00:29:08.441Z,5.72
2019-03-12T00:30:09.775Z,5.76
2019-03-12T00:31:08.374Z,5.83
2019-03-12T00:32:08.365Z,5.79
2019-03-12T00:33:08.454Z,5.76
2019-03-12T00:34:08.368Z,5.82
2019-03-12T00:35:08.366Z,5.83
2019-03-12T00:36:08.317Z,5.74
2019-03-12T00:37:08.296Z,5.82
2019-03-12T00:38:08.288Z,5.85
2019-03-12T00:39:08.285Z,5.76
2019-03-12T00:40:08.276Z,5.78
2019-03-12T00:41:08.276Z,5.82
2019-03-12T00:42:08.257Z,5.71
2019-03-12T00:43:08.245Z,5.74
2019-03-12T00:44:08.219Z,5.79
2019-03-12T00:45:08.222Z,5.81
2019-03-12T00:46:08.195Z,5.76
2019-03-12T00:47:08.192Z,5.76
2019-03-12T00:48:08.175Z,5.72
2019-03-12T00:49:08.160Z,5.81
2019-03-12T00:50:08.163Z,5.71
2019-03-12T00:51:08.143Z,5.61
2019-03-12T00:52:08.132Z,5.64
2019-03-12T00:53:08.160Z,5.61
2019-03-12T00:54:08.124Z,5.54
2019-03-12T00:55:08.117Z,5.58
2019-03-12T00:56:08.093Z,5.53
2019-03-12T00:57:08.094Z,5.54
2019-03-12T00:58:08.060Z,5.51
2019-03-12T00:59:08.053Z,5.60
2019-03-12T01:00:08.049Z,5.51
2019-03-12T01:01:08.034Z,5.58
2019-03-12T01:02:08.016Z,5.56
2019-03-12T01:03:08.012Z,5.51
2019-03-12T01:04:08.020Z,5.56
2019-03-12T01:05:07.990Z,5.58
2019-03-12T01:06:07.972Z,5.54
2019-03-12T01:07:07.971Z,5.57
2019-03-12T01:08:07.951Z,5.57
2019-03-12T01:09:07.939Z,5.58
2019-03-12T01:10:07.930Z,5.60
2019-03-12T01:11:07.925Z,5.61
2019-03-12T01:12:07.904Z,5.56
2019-03-12T01:13:07.919Z,5.51
2019-03-12T01:14:07.881Z,5.54
2019-03-12T01:15:07.874Z,5.53
2019-03-12T01:16:07.883Z,5.54
2019-03-12T01:17:07.866Z,5.56
2019-03-12T01:18:07.843Z,5.53
2019-03-12T01:19:07.826Z,5.45
2019-03-12T01:20:07.813Z,5.43
2019-03-12T01:21:07.822Z,5.39
2019-03-12T01:22:07.790Z,5.36
2019-03-12T01:23:07.785Z,5.38
2019-03-12T01:24:07.772Z,5.35
2019-03-12T01:25:07.759Z,5.36
2019-03-12T01:26:07.759Z,5.33
2019-03-12T01:27:07.734Z,5.30
2019-03-12T01:28:07.726Z,5.30
2019-03-12T01:29:07.722Z,5.27
2019-03-12T01:30:07.705Z,5.31
2019-03-12T01:31:07.702Z,5.25
2019-03-12T01:32:07.685Z,5.27
2019-03-12T01:33:07.667Z,5.24
2019-03-12T01:34:07.657Z,5.22
2019-03-12T01:35:07.659Z,5.18
2019-03-12T01:36:07.644Z,5.20
2019-03-12T01:37:07.622Z,5.17
2019-03-12T01:38:07.621Z,5.17
2019-03-12T01:39:07.602Z,5.15
2019-03-12T01:40:07.607Z,5.12
2019-03-12T01:41:07.595Z,5.07
2019-03-12T01:42:07.565Z,5.09
2019-03-12T01:43:07.561Z,4.99
2019-03-12T01:44:07.546Z,4.97
2019-03-12T01:45:07.534Z,5.06
2019-03-12T01:46:07.543Z,4.99
2019-03-12T01:47:07.515Z,4.99
2019-03-12T01:48:07.500Z,4.92
2019-03-12T01:49:07.488Z,4.86
2019-03-12T01:50:07.479Z,4.78
2019-03-12T01:51:07.472Z,4.80
2019-03-12T01:52:07.471Z,4.85
2019-03-12T01:53:07.529Z,4.80
2019-03-12T01:54:07.432Z,4.84
2019-03-12T01:55:07.419Z,4.75
2019-03-12T01:56:07.420Z,4.73
2019-03-12T01:57:07.410Z,4.75
2019-03-12T01:58:07.392Z,4.69
2019-03-12T01:59:07.388Z,4.75
2019-03-12T02:00:07.385Z,4.75
2019-03-12T02:01:07.358Z,4.70
2019-03-12T02:02:07.351Z,4.75
2019-03-12T02:03:07.362Z,4.80
2019-03-12T02:04:07.324Z,4.72
2019-03-12T02:05:07.315Z,4.73
2019-03-12T02:06:07.304Z,4.72
2019-03-12T02:07:07.331Z,4.69
2019-03-12T02:08:07.277Z,4.67
2019-03-12T02:09:07.291Z,4.69
2019-03-12T02:10:07.255Z,4.63
2019-03-12T02:11:07.245Z,4.62
2019-03-12T02:12:07.268Z,4.60
2019-03-12T02:13:07.228Z,4.58
2019-03-12T02:14:07.215Z,4.54
2019-03-12T02:15:07.220Z,4.55
2019-03-12T02:16:07.199Z,4.42
2019-03-12T02:17:07.206Z,4.54
2019-03-12T02:18:07.196Z,4.55
2019-03-12T02:19:07.168Z,4.65
2019-03-12T02:20:07.162Z,4.47
2019-03-12T02:21:07.173Z,4.50
2019-03-12T02:22:07.136Z,4.41
2019-03-12T02:23:07.117Z,4.40
2019-03-12T02:24:07.125Z,4.42
2019-03-12T02:25:07.088Z,4.41
2019-03-12T02:26:07.090Z,4.37
2019-03-12T02:27:07.106Z,4.36
2019-03-12T02:28:07.138Z,4.41
2019-03-12T02:29:07.041Z,4.42
2019-03-12T02:30:07.044Z,4.36
2019-03-12T02:31:07.020Z,4.37
2019-03-12T02:32:07.024Z,4.37
2019-03-12T02:33:06.994Z,4.40
2019-03-12T02:34:06.987Z,4.37
2019-03-12T02:35:06.981Z,4.33
2019-03-12T02:36:06.961Z,4.32
2019-03-12T02:37:06.950Z,4.29
2019-03-12T02:38:06.941Z,4.26
2019-03-12T02:39:06.925Z,4.26
2019-03-12T02:40:06.924Z,4.23
2019-03-12T02:41:06.905Z,4.29
2019-03-12T02:42:06.895Z,4.24
2019-03-12T02:43:06.888Z,4.30
2019-03-12T02:44:06.876Z,4.24
2019-03-12T02:45:06.858Z,4.24
2019-03-12T02:46:06.849Z,4.32
2019-03-12T02:47:06.844Z,4.23
2019-03-12T02:48:06.827Z,4.32
2019-03-12T02:49:09.438Z,4.23
2019-03-12T02:50:06.812Z,4.23
2019-03-12T02:51:06.789Z,4.32
2019-03-12T02:52:06.786Z,4.40
2019-03-12T02:53:06.784Z,4.32
2019-03-12T02:54:06.789Z,4.40
2019-03-12T02:55:06.757Z,4.42
2019-03-12T02:56:06.755Z,4.36
2019-03-12T02:57:06.732Z,4.42
2019-03-12T02:58:06.760Z,4.37
2019-03-12T02:59:06.733Z,4.34
2019-03-12T03:00:06.689Z,4.36
2019-03-12T03:01:06.682Z,4.37
2019-03-12T03:02:06.674Z,4.36
2019-03-12T03:03:06.678Z,4.42
2019-03-12T03:04:06.653Z,4.40
2019-03-12T03:05:06.636Z,4.42
2019-03-12T03:06:06.634Z,4.40
2019-03-12T03:07:06.612Z,4.40
2019-03-12T03:08:06.618Z,4.41
2019-03-12T03:09:06.590Z,4.36
2019-03-12T03:10:06.578Z,4.42
2019-03-12T03:11:06.601Z,4.37
2019-03-12T03:12:06.554Z,4.40
2019-03-12T03:13:06.573Z,4.37
2019-03-12T03:14:06.533Z,4.42
2019-03-12T03:15:06.522Z,4.42
2019-03-12T03:16:06.520Z,4.27
2019-03-12T03:17:06.501Z,4.30
2019-03-12T03:18:06.501Z,4.33
2019-03-12T03:19:06.489Z,4.32
2019-03-12T03:20:06.469Z,4.27
2019-03-12T03:21:06.455Z,4.23
2019-03-12T03:22:06.447Z,4.24
2019-03-12T03:23:06.472Z,4.23
2019-03-12T03:24:06.424Z,4.15
2019-03-12T03:25:06.422Z,4.23
2019-03-12T03:26:06.396Z,4.22
2019-03-12T03:27:06.395Z,4.15
2019-03-12T03:28:06.377Z,4.08
2019-03-12T03:29:06.367Z,4.20
2019-03-12T03:30:06.356Z,4.23
2019-03-12T03:31:06.348Z,4.16
2019-03-12T03:32:06.373Z,4.12
2019-03-12T03:33:06.321Z,4.15
2019-03-12T03:34:06.318Z,4.20
2019-03-12T03:35:06.309Z,4.08
2019-03-12T03:36:06.305Z,4.09
2019-03-12T03:37:06.312Z,4.11
2019-03-12T03:38:06.268Z,4.06
2019-03-12T03:39:06.270Z,4.04
2019-03-12T03:40:06.273Z,4.02
2019-03-12T03:41:06.253Z,4.02
2019-03-12T03:42:06.250Z,3.93
2019-03-12T03:43:06.259Z,4.06
2019-03-12T03:44:06.238Z,4.02
2019-03-12T03:45:06.192Z,3.94
2019-03-12T03:46:06.177Z,3.91
2019-03-12T03:47:06.162Z,3.88
2019-03-12T03:48:06.179Z,3.93
2019-03-12T03:49:06.249Z,3.91
2019-03-12T03:50:06.141Z,3.94
2019-03-12T03:51:06.153Z,3.96
2019-03-12T03:52:06.104Z,3.97
2019-03-12T03:53:06.105Z,3.93
2019-03-12T03:54:06.136Z,3.83
2019-03-12T03:55:06.083Z,3.87
2019-03-12T03:56:06.065Z,3.90
2019-03-12T03:57:06.052Z,3.86
2019-03-12T03:58:06.039Z,3.86
2019-03-12T03:59:06.048Z,3.86
2019-03-12T04:00:06.025Z,3.93
2019-03-12T04:01:06.024Z,3.87
2019-03-12T04:02:05.997Z,3.86
2019-03-12T04:03:05.986Z,3.87
2019-03-12T04:04:05.987Z,3.86
2019-03-12T04:05:05.993Z,3.88
2019-03-12T04:06:05.968Z,3.90
2019-03-12T04:07:05.947Z,3.80
2019-03-12T04:08:05.926Z,3.91
2019-03-12T04:09:05.926Z,3.80
2019-03-12T04:10:05.936Z,3.76
2019-03-12T04:11:05.912Z,3.76
2019-03-12T04:12:05.884Z,3.69
2019-03-12T04:13:05.870Z,3.83
2019-03-12T04:14:05.865Z,3.76
2019-03-12T04:15:05.851Z,3.90
2019-03-12T04:16:05.846Z,3.83
2019-03-12T04:17:05.832Z,3.83
2019-03-12T04:18:05.816Z,3.78
2019-03-12T04:19:05.861Z,3.87
2019-03-12T04:20:05.790Z,3.84
2019-03-12T04:21:05.856Z,3.73
2019-03-12T04:22:05.784Z,3.76
2019-03-12T04:23:05.768Z,3.88
2019-03-12T04:24:05.761Z,3.88
2019-03-12T04:25:05.736Z,3.86
2019-03-12T04:26:05.732Z,3.76
2019-03-12T04:27:05.715Z,3.78
2019-03-12T04:28:05.702Z,3.79
2019-03-12T04:29:05.714Z,3.69
2019-03-12T04:30:05.682Z,3.75
2019-03-12T04:31:05.665Z,3.73
2019-03-12T04:32:05.674Z,3.78
2019-03-12T04:33:05.666Z,3.75
2019-03-12T04:34:05.665Z,3.66
2019-03-12T04:35:05.620Z,3.70
2019-03-12T04:36:05.610Z,3.62
2019-03-12T04:37:05.599Z,3.66
2019-03-12T04:38:07.270Z,3.66
2019-03-12T04:39:05.586Z,3.68
2019-03-12T04:40:05.578Z,3.61
2019-03-12T04:41:05.549Z,3.66
2019-03-12T04:42:05.539Z,3.62
2019-03-12T04:43:05.528Z,3.68
2019-03-12T04:44:05.522Z,3.65
2019-03-12T04:45:05.517Z,3.62
2019-03-12T04:46:05.524Z,3.60
2019-03-12T04:47:05.500Z,3.60
2019-03-12T04:48:05.471Z,3.58
2019-03-12T04:49:05.462Z,3.61
2019-03-12T04:50:05.483Z,3.66
2019-03-12T04:51:05.469Z,3.62
2019-03-12T04:52:05.426Z,3.61
2019-03-12T04:53:05.412Z,3.62
2019-03-12T04:54:05.422Z,3.52
2019-03-12T04:55:05.405Z,3.57
2019-03-12T04:56:05.390Z,3.52
2019-03-12T04:57:05.372Z,3.57
2019-03-12T04:58:05.373Z,3.54
2019-03-12T04:59:05.352Z,3.45
2019-03-12T05:00:05.359Z,3.54
2019-03-12T05:01:05.324Z,3.50
2019-03-12T05:02:05.336Z,3.52
2019-03-12T05:03:05.300Z,3.45
2019-03-12T05:04:05.293Z,3.45
2019-03-12T05:05:05.289Z,3.36
2019-03-12T05:06:05.274Z,3.33
2019-03-12T05:07:05.258Z,3.48
2019-03-12T05:08:05.245Z,3.42
2019-03-12T05:09:05.231Z,3.36
2019-03-12T05:10:05.234Z,3.36
2019-03-12T05:11:05.209Z,3.40
2019-03-12T05:12:05.199Z,3.48
2019-03-12T05:13:05.201Z,3.51
2019-03-12T05:14:05.177Z,3.50
2019-03-12T05:15:05.445Z,3.51
2019-03-12T05:16:05.181Z,3.45
2019-03-12T05:17:05.144Z,3.42
2019-03-12T05:18:05.132Z,3.45
2019-03-12T05:19:05.139Z,3.51
2019-03-12T05:20:05.125Z,3.39
2019-03-12T05:21:05.103Z,3.35
2019-03-12T05:22:05.085Z,3.36
2019-03-12T05:23:05.073Z,3.45
2019-03-12T05:24:05.072Z,3.36
2019-03-12T05:25:05.054Z,3.39
2019-03-12T05:26:05.043Z,3.39
2019-03-12T05:27:05.043Z,3.42
2019-03-12T05:28:05.021Z,3.36
2019-03-12T05:29:05.016Z,3.33
2019-03-12T05:30:05.005Z,3.35
2019-03-12T05:31:04.992Z,3.51
2019-03-12T05:32:04.971Z,3.43
2019-03-12T05:33:04.977Z,3.48
2019-03-12T05:34:04.956Z,3.42
2019-03-12T05:35:04.953Z,3.47
2019-03-12T05:36:04.940Z,3.48
2019-03-12T05:37:04.925Z,3.47
2019-03-12T05:38:04.906Z,3.51
2019-03-12T05:39:04.895Z,3.54
2019-03-12T05:40:04.886Z,3.48
2019-03-12T05:41:04.900Z,3.48
2019-03-12T05:42:04.863Z,3.42
2019-03-12T05:43:04.896Z,3.54
2019-03-12T05:44:04.846Z,3.55
2019-03-12T05:45:04.832Z,3.58
2019-03-12T05:46:04.831Z,3.51
2019-03-12T05:47:07.945Z,3.47
2019-03-12T05:48:04.811Z,3.54
2019-03-12T05:49:04.789Z,3.48
2019-03-12T05:50:04.776Z,3.51
2019-03-12T05:51:04.769Z,3.51
2019-03-12T05:52:04.761Z,3.51
2019-03-12T05:53:04.749Z,3.50
2019-03-12T05:54:04.738Z,3.50
2019-03-12T05:55:04.735Z,3.45
2019-03-12T05:56:04.725Z,3.55
2019-03-12T05:57:04.699Z,3.51
2019-03-12T05:58:04.701Z,3.47
2019-03-12T05:59:04.678Z,3.51
2019-03-12T06:00:04.661Z,3.55
2019-03-12T06:01:04.662Z,3.60
2019-03-12T06:02:04.643Z,3.66
2019-03-12T06:03:04.647Z,3.61
2019-03-12T06:04:04.625Z,3.62
2019-03-12T06:05:04.618Z,3.66
2019-03-12T06:06:04.620Z,3.61
2019-03-12T06:07:04.589Z,3.66
2019-03-12T06:08:04.580Z,3.73
2019-03-12T06:09:04.564Z,3.72
2019-03-12T06:10:04.552Z,3.79
2019-03-12T06:11:04.541Z,3.70
2019-03-12T06:12:04.539Z,3.76
2019-03-12T06:13:04.520Z,3.70
2019-03-12T06:14:04.523Z,3.72
2019-03-12T06:15:04.511Z,3.79
2019-03-12T06:16:04.487Z,3.76
2019-03-12T06:17:04.488Z,3.80
2019-03-12T06:18:04.466Z,3.83
2019-03-12T06:19:04.465Z,3.86
2019-03-12T06:20:04.470Z,3.86
2019-03-12T06:21:04.431Z,3.93
2019-03-12T06:22:04.429Z,3.91
2019-03-12T06:23:04.408Z,3.94
2019-03-12T06:24:04.404Z,3.94
2019-03-12T06:25:04.407Z,3.97
2019-03-12T06:26:04.400Z,3.90
2019-03-12T06:27:04.390Z,3.91
2019-03-12T06:28:04.369Z,3.90
2019-03-12T06:29:04.353Z,4.02
2019-03-12T06:30:04.331Z,4.05
2019-03-12T06:31:04.333Z,4.11
2019-03-12T06:32:04.320Z,4.14
2019-03-12T06:33:04.301Z,4.20
2019-03-12T06:34:04.289Z,4.18
2019-03-12T06:35:04.274Z,4.18
2019-03-12T06:36:04.294Z,4.20
2019-03-12T06:37:04.273Z,4.12
2019-03-12T06:38:04.283Z,4.16
2019-03-12T06:39:04.268Z,4.09
2019-03-12T06:40:04.238Z,4.23
2019-03-12T06:41:04.206Z,4.24
2019-03-12T06:42:04.205Z,4.24
2019-03-12T06:43:04.185Z,4.23
2019-03-12T06:44:04.203Z,4.16
2019-03-12T06:45:04.189Z,4.22
2019-03-12T06:46:04.176Z,4.08
2019-03-12T06:47:04.159Z,4.14
2019-03-12T06:48:04.139Z,4.09
2019-03-12T06:49:04.112Z,4.16
2019-03-12T06:50:04.105Z,4.14
2019-03-12T06:51:04.099Z,4.09
2019-03-12T06:52:04.086Z,4.09
2019-03-12T06:53:04.078Z,4.15
2019-03-12T06:54:04.060Z,4.20
2019-03-12T06:55:04.045Z,4.11
2019-03-12T06:56:04.038Z,4.15
2019-03-12T06:57:04.041Z,4.06
2019-03-12T06:58:04.083Z,4.02
2019-03-12T06:59:04.021Z,4.04
2019-03-12T07:00:04.025Z,4.05
2019-03-12T07:01:03.998Z,4.06
2019-03-12T07:02:04.078Z,4.11
2019-03-12T07:03:03.980Z,4.06
2019-03-12T07:04:04.025Z,4.12
2019-03-12T07:05:03.960Z,4.09
2019-03-12T07:06:03.955Z,4.12
2019-03-12T07:07:07.082Z,4.20
2019-03-12T07:08:06.376Z,4.20
2019-03-12T07:09:03.899Z,4.29
2019-03-12T07:10:03.880Z,4.29
2019-03-12T07:11:03.870Z,4.27
2019-03-12T07:12:03.859Z,4.33
2019-03-12T07:13:03.857Z,4.24
2019-03-12T07:14:03.837Z,4.27
2019-03-12T07:15:03.840Z,4.24
2019-03-12T07:16:03.813Z,4.24
2019-03-12T07:17:03.809Z,4.36
2019-03-12T07:18:03.823Z,4.27
2019-03-12T07:19:03.791Z,4.37
2019-03-12T07:20:03.763Z,4.41
2019-03-12T07:21:03.753Z,4.41
2019-03-12T07:22:03.793Z,4.34
2019-03-12T07:23:03.751Z,4.41
2019-03-12T07:24:03.744Z,4.41
2019-03-12T07:25:03.719Z,4.42
2019-03-12T07:26:03.702Z,4.40
2019-03-12T07:27:03.692Z,4.37
2019-03-12T07:28:03.709Z,4.42
2019-03-12T07:29:03.663Z,4.48
2019-03-12T07:30:03.654Z,4.54
2019-03-12T07:31:03.706Z,4.54
2019-03-12T07:32:03.650Z,4.51
2019-03-12T07:33:03.644Z,4.60
2019-03-12T07:34:03.610Z,4.67
2019-03-12T07:35:03.603Z,4.62
2019-03-12T07:36:03.592Z,4.73
2019-03-12T07:37:03.590Z,4.75
2019-03-12T07:38:03.570Z,4.77
2019-03-12T07:39:03.551Z,4.92
2019-03-12T07:40:03.566Z,5.02
2019-03-12T07:41:03.528Z,5.00
2019-03-12T07:42:03.516Z,5.09
2019-03-12T07:43:03.530Z,5.22
2019-03-12T07:44:03.525Z,5.36
2019-03-12T07:45:03.481Z,5.49
2019-03-12T07:46:03.476Z,5.49
2019-03-12T07:47:03.464Z,5.51
2019-03-12T07:48:03.474Z,5.67
2019-03-12T07:49:03.504Z,5.83
2019-03-12T07:50:03.439Z,5.86
2019-03-12T07:51:03.418Z,5.94
2019-03-12T07:52:03.407Z,5.94
2019-03-12T07:53:03.397Z,5.96
2019-03-12T07:54:03.416Z,5.96
2019-03-12T07:55:03.376Z,6.04
2019-03-12T07:56:03.360Z,6.15
2019-03-12T07:57:03.346Z,6.33
2019-03-12T07:58:03.338Z,6.34
2019-03-12T07:59:03.332Z,6.44
2019-03-12T08:00:03.332Z,6.43
2019-03-12T08:01:03.307Z,6.46
2019-03-12T08:02:03.298Z,6.56
2019-03-12T08:03:03.281Z,6.46
2019-03-12T08:04:03.288Z,6.56
2019-03-12T08:05:03.264Z,6.73
2019-03-12T08:06:03.328Z,6.74
2019-03-12T08:07:03.233Z,6.79
2019-03-12T08:08:03.231Z,6.84
2019-03-12T08:09:03.218Z,7.43
2019-03-12T08:10:03.216Z,8.23
2019-03-12T08:11:03.205Z,8.79
2019-03-12T08:12:03.191Z,9.13
2019-03-12T08:13:03.168Z,9.46
2019-03-12T08:14:03.164Z,8.65
2019-03-12T08:15:03.141Z,8.41
2019-03-12T08:16:03.152Z,8.52
2019-03-12T08:17:03.131Z,8.73
2019-03-12T08:18:03.111Z,9.17
2019-03-12T08:19:03.106Z,9.43
2019-03-12T08:20:03.087Z,9.83
2019-03-12T08:21:03.080Z,9.69
2019-03-12T08:22:03.208Z,9.23
2019-03-12T08:23:03.058Z,9.13
2019-03-12T08:24:03.054Z,9.04
2019-03-12T08:25:03.041Z,8.63
2019-03-12T08:26:03.038Z,8.37
2019-03-12T08:27:03.026Z,7.86
2019-03-12T08:28:02.999Z,7.77
2019-03-12T08:29:03.024Z,7.97
2019-03-12T08:30:02.977Z,8.29
2019-03-12T08:31:02.963Z,8.81
2019-03-12T08:32:02.953Z,9.14
2019-03-12T08:33:02.941Z,8.91
2019-03-12T08:34:02.942Z,9.01
2019-03-12T08:35:02.921Z,9.42
2019-03-12T08:36:02.920Z,9.57
2019-03-12T08:37:02.906Z,9.74
2019-03-12T08:38:02.889Z,9.64
2019-03-12T08:39:02.892Z,9.40
2019-03-12T08:40:02.863Z,9.10
2019-03-12T08:41:02.852Z,9.36
2019-03-12T08:42:02.839Z,9.76
2019-03-12T08:43:02.830Z,10.20
2019-03-12T08:44:02.815Z,10.36
2019-03-12T08:45:02.813Z,10.55
2019-03-12T08:46:02.803Z,10.74
2019-03-12T08:47:02.786Z,10.33
2019-03-12T08:48:02.770Z,9.71
2019-03-12T08:49:02.763Z,9.35
2019-03-12T08:50:02.757Z,9.51
2019-03-12T08:51:05.257Z,10.05
2019-03-12T08:52:02.730Z,10.52
2019-03-12T08:53:02.722Z,10.61
2019-03-12T08:54:02.707Z,10.99
2019-03-12T08:55:04.282Z,11.09
2019-03-12T08:56:02.689Z,10.96
2019-03-12T08:57:02.668Z,10.97
2019-03-12T08:58:02.663Z,10.85
2019-03-12T08:59:02.663Z,10.64
2019-03-12T09:00:02.649Z,10.63
2019-03-12T09:01:02.625Z,10.14
2019-03-12T09:02:02.782Z,9.78
2019-03-12T09:03:02.615Z,9.43
2019-03-12T09:04:02.592Z,9.26
2019-03-12T09:05:02.591Z,9.46
2019-03-12T09:06:02.569Z,9.78
2019-03-12T09:07:05.059Z,9.69
2019-03-12T09:08:02.548Z,9.97
2019-03-12T09:09:02.548Z,10.51
2019-03-12T09:10:02.589Z,10.52
2019-03-12T09:11:02.517Z,10.55
2019-03-12T09:12:02.504Z,10.30
2019-03-12T09:13:02.488Z,10.52
2019-03-12T09:14:02.485Z,10.59
2019-03-12T09:15:02.478Z,10.55
2019-03-12T09:16:02.463Z,10.44
2019-03-12T09:17:02.445Z,10.42
2019-03-12T09:18:02.453Z,10.20
2019-03-12T09:19:02.424Z,10.11
2019-03-12T09:20:02.434Z,9.97
2019-03-12T09:21:02.398Z,9.66
2019-03-12T09:22:02.389Z,9.26
2019-03-12T09:23:02.378Z,9.24
2019-03-12T09:24:02.367Z,9.46
2019-03-12T09:25:02.365Z,9.50
2019-03-12T09:26:02.353Z,9.68
2019-03-12T09:27:02.341Z,9.78
2019-03-12T09:28:02.317Z,9.35
2019-03-12T09:29:02.308Z,9.15
2019-03-12T09:30:02.321Z,9.31
2019-03-12T09:31:02.300Z,9.32
2019-03-12T09:32:02.285Z,9.58
2019-03-12T09:33:02.261Z,9.66
2019-03-12T09:34:02.248Z,9.69
2019-03-12T09:35:02.246Z,9.51
2019-03-12T09:36:02.242Z,9.71
2019-03-12T09:37:02.939Z,9.68
2019-03-12T09:38:02.205Z,9.89
2019-03-12T09:39:02.195Z,9.93
2019-03-12T09:40:02.187Z,9.90
2019-03-12T09:41:02.173Z,9.76
2019-03-12T09:42:02.158Z,9.78
2019-03-12T09:43:02.155Z,9.81
2019-03-12T09:44:02.157Z,10.26
2019-03-12T09:45:02.124Z,10.64
2019-03-12T09:46:02.122Z,10.91
2019-03-12T09:47:02.101Z,10.91
2019-03-12T09:48:02.092Z,10.70
2019-03-12T09:49:02.098Z,10.81
2019-03-12T09:50:02.074Z,10.74
2019-03-12T09:51:02.077Z,10.96
2019-03-12T09:52:02.046Z,11.10
2019-03-12T09:53:02.035Z,11.49
2019-03-12T09:54:02.022Z,11.47
2019-03-12T09:55:04.758Z,11.35
2019-03-12T09:56:02.055Z,11.40
2019-03-12T09:57:01.990Z,11.35
2019-03-12T09:58:01.983Z,11.27
2019-03-12T09:59:01.972Z,11.35
2019-03-12T10:00:15.050Z,11.58
2019-03-12T10:01:02.956Z,11.76
2019-03-12T10:02:01.951Z,11.80
2019-03-12T10:03:01.926Z,11.78
2019-03-12T10:04:01.908Z,11.70
2019-03-12T10:05:01.903Z,12.01
2019-03-12T10:06:01.905Z,12.04
2019-03-12T10:07:01.879Z,12.31
2019-03-12T10:08:01.868Z,12.28
2019-03-12T10:09:01.854Z,12.20
2019-03-12T10:10:01.854Z,12.10
2019-03-12T10:11:01.851Z,11.99
2019-03-12T10:12:01.834Z,12.02
2019-03-12T10:13:01.806Z,12.07
2019-03-12T10:14:01.802Z,12.24
2019-03-12T10:15:01.786Z,12.45
2019-03-12T10:16:01.784Z,12.19
2019-03-12T10:17:01.764Z,11.78
2019-03-12T10:18:02.810Z,11.35
2019-03-12T10:19:01.741Z,11.00
2019-03-12T10:20:01.733Z,10.64
2019-03-12T10:21:01.720Z,10.81
2019-03-12T10:22:01.709Z,10.91
2019-03-12T10:23:01.694Z,10.97
2019-03-12T10:24:01.704Z,11.07
2019-03-12T10:25:01.681Z,11.24
2019-03-12T10:26:01.660Z,11.11
2019-03-12T10:27:01.653Z,10.89
2019-03-12T10:28:01.660Z,10.94
2019-03-12T10:29:01.630Z,11.04
2019-03-12T10:30:01.617Z,11.25
2019-03-12T10:31:01.603Z,11.47
2019-03-12T10:32:01.597Z,11.61
2019-03-12T10:33:01.581Z,11.60
2019-03-12T10:34:01.572Z,11.55
2019-03-12T10:35:01.568Z,11.46
2019-03-12T10:36:01.606Z,11.19
2019-03-12T10:37:11.319Z,11.02
2019-03-12T10:38:02.537Z,11.19
2019-03-12T10:39:01.517Z,11.28
2019-03-12T10:40:01.525Z,10.97
2019-03-12T10:41:01.506Z,11.11
2019-03-12T10:42:01.493Z,11.18
2019-03-12T10:43:01.471Z,11.06
2019-03-12T10:44:01.456Z,11.00
2019-03-12T10:45:01.445Z,11.14
2019-03-12T10:46:01.433Z,11.24
2019-03-12T10:47:01.443Z,11.46
2019-03-12T10:48:01.412Z,11.40
2019-03-12T10:49:01.401Z,11.25
2019-03-12T10:50:01.390Z,11.10
2019-03-12T10:51:01.378Z,11.10
2019-03-12T10:52:01.376Z,10.96
2019-03-12T10:53:01.381Z,10.84
2019-03-12T10:54:01.344Z,10.56
2019-03-12T10:55:12.168Z,10.44
2019-03-12T10:56:02.326Z,10.29
2019-03-12T10:57:01.329Z,10.47
2019-03-12T10:58:01.306Z,10.73
2019-03-12T10:59:01.290Z,10.81
2019-03-12T11:00:01.277Z,10.81
2019-03-12T11:01:01.263Z,10.84
2019-03-12T11:02:01.270Z,10.76
2019-03-12T11:03:01.245Z,10.42
2019-03-12T11:04:01.230Z,10.29
2019-03-12T11:05:01.220Z,10.25
2019-03-12T11:06:01.257Z,10.25
2019-03-12T11:07:01.372Z,10.29
2019-03-12T11:08:01.184Z,10.27
2019-03-12T11:09:01.174Z,10.32
2019-03-12T11:10:01.173Z,10.42
2019-03-12T11:11:01.151Z,10.36
2019-03-12T11:12:01.175Z,10.45
2019-03-12T11:13:01.127Z,10.20
2019-03-12T11:14:01.124Z,10.25
2019-03-12T11:15:01.113Z,10.26
2019-03-12T11:16:01.123Z,10.29
2019-03-12T11:17:01.083Z,10.51
2019-03-12T11:18:01.076Z,10.52
2019-03-12T11:19:01.061Z,10.41
2019-03-12T11:20:01.052Z,10.60
2019-03-12T11:21:01.041Z,10.70
2019-03-12T11:22:01.032Z,10.71
2019-03-12T11:23:01.086Z,10.86
2019-03-12T11:24:01.009Z,10.84
2019-03-12T11:25:01.007Z,10.96
2019-03-12T11:26:00.984Z,10.99
2019-03-12T11:27:00.968Z,11.07
2019-03-12T11:28:00.996Z,11.04
2019-03-12T11:29:00.945Z,11.17
2019-03-12T11:30:00.937Z,10.97
2019-03-12T11:31:00.923Z,10.79
2019-03-12T11:32:00.919Z,10.86
2019-03-12T11:33:00.915Z,10.99
2019-03-12T11:34:00.891Z,10.92
2019-03-12T11:35:00.900Z,11.14
2019-03-12T11:36:00.875Z,11.14
2019-03-12T11:37:00.881Z,11.09
2019-03-12T11:38:00.858Z,11.19
2019-03-12T11:39:00.878Z,11.65
2019-03-12T11:40:02.073Z,12.21
2019-03-12T11:41:00.880Z,12.45
2019-03-12T11:42:00.886Z,12.78
2019-03-12T11:43:00.799Z,12.82
2019-03-12T11:44:00.779Z,12.71
2019-03-12T11:45:01.462Z,12.92
2019-03-12T11:46:00.903Z,12.68
2019-03-12T11:47:00.760Z,12.93
2019-03-12T11:48:01.063Z,12.95
2019-03-12T11:49:00.744Z,12.17
2019-03-12T11:50:01.255Z,11.61
2019-03-12T11:51:00.783Z,11.42
2019-03-12T11:52:00.745Z,11.44
2019-03-12T11:53:01.112Z,11.43
2019-03-12T11:54:00.785Z,11.49
2019-03-12T11:55:01.235Z,11.42
2019-03-12T11:56:00.698Z,11.28
2019-03-12T11:57:00.630Z,11.22
2019-03-12T11:58:00.668Z,11.27
2019-03-12T11:59:00.643Z,11.21
2019-03-12T12:00:01.383Z,10.99
2019-03-12T12:01:00.585Z,10.88
2019-03-12T12:02:00.577Z,11.02
2019-03-12T12:03:00.873Z,11.00
2019-03-12T12:04:00.563Z,11.00
2019-03-12T12:05:00.541Z,11.10
2019-03-12T12:06:00.529Z,11.07
2019-03-12T12:07:00.526Z,11.11
2019-03-12T12:08:00.649Z,10.86
2019-03-12T12:09:00.521Z,10.60
2019-03-12T12:10:01.266Z,10.42
2019-03-12T12:11:00.475Z,10.45
2019-03-12T12:12:00.460Z,10.27
2019-03-12T12:13:00.451Z,10.22
2019-03-12T12:14:00.459Z,10.30
2019-03-12T12:15:00.493Z,10.27
2019-03-12T12:16:00.418Z,10.59
2019-03-12T12:17:00.403Z,10.52
2019-03-12T12:18:00.395Z,10.40
2019-03-12T12:19:00.397Z,10.47
2019-03-12T12:20:00.424Z,10.47
2019-03-12T12:21:00.375Z,10.40
2019-03-12T12:22:00.364Z,10.55
2019-03-12T12:23:00.346Z,10.63
2019-03-12T12:24:00.338Z,10.78
2019-03-12T12:25:00.392Z,10.70
2019-03-12T12:26:00.308Z,10.51
2019-03-12T12:27:00.290Z,10.45
2019-03-12T12:28:00.279Z,10.42
2019-03-12T12:29:00.281Z,10.44
2019-03-12T12:30:00.408Z,10.48
2019-03-12T12:31:00.252Z,10.55
2019-03-12T12:32:00.236Z,10.67
2019-03-12T12:33:00.223Z,10.71
2019-03-12T12:34:00.222Z,10.81
2019-03-12T12:35:00.203Z,10.78
2019-03-12T12:36:00.194Z,10.86
2019-03-12T12:37:00.181Z,10.82
2019-03-12T12:38:00.170Z,10.81
2019-03-12T12:39:00.182Z,10.78
2019-03-12T12:40:00.361Z,10.89
2019-03-12T12:41:00.137Z,10.88
2019-03-12T12:42:00.119Z,10.86
2019-03-12T12:43:00.119Z,10.86
2019-03-12T12:44:00.116Z,10.99
2019-03-12T12:45:00.126Z,10.91
2019-03-12T12:46:00.078Z,10.88
2019-03-12T12:47:00.071Z,10.96
2019-03-12T12:48:00.050Z,10.82
2019-03-12T12:49:00.042Z,10.70
2019-03-12T12:50:00.031Z,10.70
2019-03-12T12:51:03.408Z,10.74
2019-03-12T12:52:00.011Z,10.76
2019-03-12T12:53:00.015Z,10.70
2019-03-12T12:53:59.982Z,10.78
2019-03-12T12:54:59.982Z,10.79
2019-03-12T12:55:59.959Z,10.85
2019-03-12T12:56:59.949Z,10.91
2019-03-12T12:57:59.941Z,10.94
2019-03-12T12:58:59.928Z,10.85
2019-03-12T12:59:59.924Z,10.86
2019-03-12T13:00:59.914Z,10.68
2019-03-12T13:01:59.892Z,10.81
2019-03-12T13:02:59.881Z,10.73
2019-03-12T13:03:59.868Z,10.76
2019-03-12T13:04:59.886Z,10.63
2019-03-12T13:05:59.850Z,10.53
2019-03-12T13:06:59.845Z,10.52
2019-03-12T13:07:59.824Z,10.68
2019-03-12T13:08:59.813Z,10.68
2019-03-12T13:09:59.813Z,10.68